createdAt,value
2022-07-30T00:31:49.439Z,101800.16
2022-07-30T00:35:51.071Z,101795.59
2022-07-30T00:39:52.744Z,101801.00
2022-07-30T00:43:55.115Z,101796.44
2022-07-30T00:47:58.720Z,101795.75
2022-07-30T00:52:00.491Z,101792.22
2022-07-30T00:56:04.797Z,101788.50
2022-07-30T01:00:09.770Z,101789.53
2022-07-30T01:04:11.960Z,101796.59
2022-07-30T01:08:14.368Z,101794.94
2022-07-30T01:12:20.843Z,101793.06
2022-07-30T01:16:22.577Z,101795.75
2022-07-30T01:20:32.067Z,101795.97
2022-07-30T01:24:41.311Z,101794.94
2022-07-30T01:28:46.583Z,101794.28
2022-07-30T01:32:51.332Z,101796.31
2022-07-30T01:36:53.559Z,101783.84
2022-07-30T01:40:56.843Z,101786.63
2022-07-30T01:45:00.067Z,101782.59
2022-07-30T01:49:03.020Z,101779.88
2022-07-30T01:53:08.261Z,101787.16
2022-07-30T01:57:10.567Z,101789.00
2022-07-30T02:01:12.389Z,101792.06
2022-07-30T02:05:14.615Z,101788.06
2022-07-30T02:09:22.519Z,101789.44
2022-07-30T02:13:28.705Z,101785.78
2022-07-30T02:17:45.485Z,101789.84
2022-07-30T02:21:55.441Z,101786.88
2022-07-30T02:25:59.094Z,101793.09
2022-07-30T02:30:03.534Z,101789.22
2022-07-30T02:34:07.022Z,101794.41
2022-07-30T02:38:11.810Z,101789.84
2022-07-30T02:42:15.859Z,101794.41
2022-07-30T02:46:20.059Z,101791.91
2022-07-30T02:51:02.917Z,101782.31
2022-07-30T02:55:06.126Z,101779.81
2022-07-30T02:59:09.765Z,101776.78
2022-07-30T03:03:13.280Z,101778.47
2022-07-30T03:07:15.883Z,101778.47
2022-07-30T03:11:19.462Z,101783.00
2022-07-30T03:15:21.339Z,101788.59
2022-07-30T03:19:25.117Z,101778.84
2022-07-30T03:23:28.107Z,101790.63
2022-07-30T03:27:31.025Z,101793.00
2022-07-30T03:31:36.318Z,101786.31
2022-07-30T03:35:39.824Z,101778.91
2022-07-30T03:39:41.757Z,101788.03
2022-07-30T03:43:44.315Z,101796.13
2022-07-30T03:47:46.603Z,101797.13
2022-07-30T03:51:49.410Z,101787.53
2022-07-30T03:55:52.523Z,101794.50
2022-07-30T04:00:17.217Z,101794.84
2022-07-30T04:04:24.014Z,101793.50
2022-07-30T04:08:28.167Z,101800.91
2022-07-30T04:12:30.243Z,101798.41
2022-07-30T04:16:44.053Z,101806.97
2022-07-30T04:20:52.238Z,101807.63
2022-07-30T04:24:54.892Z,101808.97
2022-07-30T04:28:56.993Z,101816.50
2022-07-30T04:32:59.315Z,101813.31
2022-07-30T04:37:18.482Z,101819.66
2022-07-30T04:41:20.332Z,101824.53
2022-07-30T04:45:42.154Z,101821.47
2022-07-30T04:49:47.440Z,101823.63
2022-07-30T04:53:50.553Z,101817.53
2022-07-30T04:57:55.446Z,101818.47
2022-07-30T05:01:59.331Z,101819.81
2022-07-30T05:06:02.596Z,101826.53
2022-07-30T05:10:09.070Z,101820.75
2022-07-30T05:14:10.731Z,101829.16
2022-07-30T05:18:12.823Z,101828.81
2022-07-30T05:22:17.502Z,101837.50
2022-07-30T05:26:21.610Z,101837.44
2022-07-30T05:30:27.452Z,101842.91
2022-07-30T05:34:32.108Z,101847.97
2022-07-30T05:38:35.754Z,101860.31
2022-07-30T05:42:57.654Z,101864.53
2022-07-30T05:46:59.529Z,101866.59
2022-07-30T05:51:02.297Z,101864.91
2022-07-30T05:55:04.490Z,101875.25
2022-07-30T05:59:38.546Z,101869.97
2022-07-30T06:03:44.514Z,101872.75
2022-07-30T06:08:08.634Z,101869.50
2022-07-30T06:12:10.446Z,101875.81
2022-07-30T06:16:12.223Z,101871.91
2022-07-30T06:20:16.795Z,101870.25
2022-07-30T06:24:33.183Z,101869.56
2022-07-30T06:29:00.898Z,101869.88
2022-07-30T06:33:05.832Z,101879.28
2022-07-30T06:37:07.484Z,101883.91
2022-07-30T06:41:10.058Z,101864.59
2022-07-30T06:45:23.766Z,101864.91
2022-07-30T06:49:50.719Z,101864.59
2022-07-30T06:53:52.482Z,101869.19
2022-07-30T06:58:14.066Z,101867.59
2022-07-30T07:02:36.926Z,101873.88
2022-07-30T07:06:47.196Z,101867.34
2022-07-30T07:10:56.142Z,101880.50
2022-07-30T07:15:06.619Z,101883.34
2022-07-30T07:19:08.873Z,101886.31
2022-07-30T07:23:14.012Z,101885.28
2022-07-30T07:27:16.935Z,101883.63
2022-07-30T07:32:07.350Z,101885.94
2022-07-30T07:35:49.501Z,101883.50
2022-07-30T07:39:59.201Z,101887.72
2022-07-30T07:44:04.219Z,101900.72
2022-07-30T07:48:08.450Z,101892.03
2022-07-30T07:52:23.878Z,101895.34
2022-07-30T07:56:25.976Z,101888.72
2022-07-30T08:00:28.300Z,101886.25
2022-07-30T08:04:30.649Z,101887.63
2022-07-30T08:08:44.002Z,101886.25
2022-07-30T08:13:05.962Z,101886.06
2022-07-30T08:17:10.485Z,101881.94
2022-07-30T08:21:30.978Z,101877.59
2022-07-30T08:25:32.732Z,101876.16
2022-07-30T08:29:34.497Z,101876.66
2022-07-30T08:33:36.643Z,101875.66
2022-07-30T08:37:41.028Z,101875.66
2022-07-30T08:41:42.971Z,101875.06
2022-07-30T08:45:45.613Z,101880.53
2022-07-30T08:50:05.882Z,101887.47
2022-07-30T08:54:10.724Z,101892.09
2022-07-30T08:58:30.578Z,101894.66
2022-07-30T09:02:32.615Z,101895.75
2022-07-30T09:06:37.944Z,101896.59
2022-07-30T09:10:42.446Z,101896.22
2022-07-30T09:15:05.910Z,101897.47
2022-07-30T09:19:19.471Z,101902.94
2022-07-30T09:23:21.781Z,101898.38
2022-07-30T09:27:50.316Z,101895.47
2022-07-30T09:32:14.529Z,101895.50
2022-07-30T09:36:51.529Z,101888.22
2022-07-30T09:40:57.505Z,101890.56
2022-07-30T09:45:22.657Z,101896.59
2022-07-30T09:49:29.001Z,101889.97
2022-07-30T09:53:32.507Z,101892.47
2022-07-30T09:57:34.522Z,101890.63
2022-07-30T10:01:55.067Z,101884.38
2022-07-30T10:06:38.377Z,101879.34
2022-07-30T10:11:15.880Z,101885.22
2022-07-30T10:15:21.678Z,101883.97
2022-07-30T10:19:40.176Z,101890.66
2022-07-30T10:24:10.623Z,101896.72
2022-07-30T10:28:34.661Z,101896.50
2022-07-30T10:32:42.399Z,101902.78
2022-07-30T10:36:51.173Z,101902.75
2022-07-30T10:40:58.678Z,101896.03
2022-07-30T10:45:00.792Z,101899.78
2022-07-30T10:49:18.913Z,101898.28
2022-07-30T10:53:34.479Z,101895.47
2022-07-30T10:57:57.613Z,101900.06
2022-07-30T11:01:59.902Z,101898.75
2022-07-30T11:06:16.371Z,101894.13
2022-07-30T11:10:38.773Z,101892.44
2022-07-30T11:14:47.095Z,101883.63
2022-07-30T11:19:56.106Z,101899.28
2022-07-30T11:23:39.349Z,101895.34
2022-07-30T11:27:48.505Z,101898.91
2022-07-30T11:31:56.905Z,101900.13
2022-07-30T11:36:10.666Z,101902.03
2022-07-30T11:40:13.735Z,101902.25
2022-07-30T11:44:29.939Z,101890.31
2022-07-30T11:48:32.271Z,101893.22
2022-07-30T11:52:34.203Z,101901.72
2022-07-30T11:56:35.874Z,101904.81
2022-07-30T12:00:45.541Z,101906.00
2022-07-30T12:04:47.352Z,101898.03
2022-07-30T12:08:55.093Z,101895.69
2022-07-30T12:13:16.577Z,101896.88
2022-07-30T12:17:18.181Z,101902.41
2022-07-30T12:21:21.157Z,101891.91
2022-07-30T12:25:22.976Z,101897.31
2022-07-30T12:29:24.687Z,101891.06
2022-07-30T12:33:26.790Z,101896.16
2022-07-30T12:37:28.564Z,101893.44
2022-07-30T12:41:43.212Z,101896.16
2022-07-30T12:45:52.126Z,101885.84
2022-07-30T12:49:58.573Z,101892.69
2022-07-30T12:54:15.045Z,101882.81
2022-07-30T12:58:17.083Z,101888.50
2022-07-30T13:02:32.035Z,101883.44
2022-07-30T13:06:33.929Z,101882.97
2022-07-30T13:10:35.591Z,101882.81
2022-07-30T13:14:37.173Z,101879.13
2022-07-30T13:18:39.181Z,101883.56
2022-07-30T13:22:41.306Z,101875.69
2022-07-30T13:26:42.893Z,101873.63
2022-07-30T13:30:44.539Z,101868.25
2022-07-30T13:34:46.174Z,101861.47
2022-07-30T13:38:52.396Z,101867.19
2022-07-30T13:42:54.270Z,101870.09
2022-07-30T13:46:59.941Z,101863.72
2022-07-30T13:51:04.744Z,101866.63
2022-07-30T13:55:06.632Z,101860.25
2022-07-30T13:59:08.946Z,101857.31
2022-07-30T14:03:11.373Z,101853.16
2022-07-30T14:07:12.993Z,101859.44
2022-07-30T14:11:15.646Z,101855.88
2022-07-30T14:15:17.970Z,101842.25
2022-07-30T14:19:23.166Z,101843.06
2022-07-30T14:23:26.361Z,101848.81
2022-07-30T14:27:28.060Z,101834.72
2022-07-30T14:31:29.761Z,101839.25
2022-07-30T14:35:31.495Z,101828.13
2022-07-30T14:39:33.121Z,101827.03
2022-07-30T14:43:34.762Z,101822.22
2022-07-30T14:47:36.947Z,101820.09
2022-07-30T14:51:38.540Z,101818.72
2022-07-30T14:55:40.168Z,101822.75
2022-07-30T14:59:41.737Z,101831.59
2022-07-30T15:03:44.490Z,101832.81
2022-07-30T15:07:46.097Z,101829.22
2022-07-30T15:12:08.838Z,101823.81
2022-07-30T15:16:11.395Z,101825.16
2022-07-30T15:20:13.044Z,101833.25
2022-07-30T15:24:14.685Z,101832.88
2022-07-30T15:28:16.371Z,101831.28
2022-07-30T15:32:18.003Z,101826.13
2022-07-30T15:36:19.660Z,101836.66
2022-07-30T15:40:21.416Z,101832.66
2022-07-30T15:44:23.032Z,101834.69
2022-07-30T15:48:26.863Z,101838.69
2022-07-30T15:52:28.987Z,101830.53
2022-07-30T15:56:33.296Z,101838.88
2022-07-30T16:00:34.903Z,101834.63
2022-07-30T16:04:38.736Z,101828.34
2022-07-30T16:08:42.866Z,101829.38
2022-07-30T16:12:44.642Z,101828.56
2022-07-30T16:16:46.379Z,101821.44
2022-07-30T16:20:48.032Z,101823.09
2022-07-30T16:24:50.062Z,101822.97
2022-07-30T16:28:51.834Z,101816.75
2022-07-30T16:32:55.243Z,101799.19
2022-07-30T16:36:56.952Z,101806.34
2022-07-30T16:40:58.615Z,101798.66
2022-07-30T16:45:00.252Z,101798.09
2022-07-30T16:49:01.913Z,101790.53
2022-07-30T16:53:08.505Z,101788.41
2022-07-30T16:57:12.153Z,101778.56
2022-07-30T17:01:13.865Z,101770.25
2022-07-30T17:05:15.525Z,101775.06
2022-07-30T17:09:17.951Z,101764.19
2022-07-30T17:13:22.123Z,101761.44
2022-07-30T17:17:48.382Z,101755.41
2022-07-30T17:22:10.338Z,101752.72
2022-07-30T17:26:11.973Z,101758.06
2022-07-30T17:30:13.737Z,101749.72
2022-07-30T17:34:20.120Z,101763.72
2022-07-30T17:38:21.774Z,101756.47
2022-07-30T17:42:25.449Z,101757.75
2022-07-30T17:46:27.232Z,101745.25
2022-07-30T17:50:33.085Z,101743.59
2022-07-30T17:54:34.780Z,101741.25
2022-07-30T17:58:36.792Z,101741.84
2022-07-30T18:02:38.441Z,101744.84
2022-07-30T18:06:40.214Z,101745.13
2022-07-30T18:10:42.312Z,101740.19
2022-07-30T18:14:43.965Z,101744.44
2022-07-30T18:18:45.618Z,101746.72
2022-07-30T18:22:47.221Z,101741.56
2022-07-30T18:26:53.474Z,101742.44
2022-07-30T18:30:55.204Z,101742.63
2022-07-30T18:34:56.888Z,101747.69
2022-07-30T18:38:58.471Z,101750.25
2022-07-30T18:43:00.325Z,101753.16
2022-07-30T18:47:02.191Z,101750.28
2022-07-30T18:51:04.365Z,101747.97
2022-07-30T18:55:07.687Z,101751.97
2022-07-30T18:59:09.587Z,101748.66
2022-07-30T19:03:17.537Z,101752.88
2022-07-30T19:07:24.235Z,101744.50
2022-07-30T19:11:25.913Z,101742.44
2022-07-30T19:15:29.476Z,101739.56
2022-07-30T19:19:31.107Z,101737.91
2022-07-30T19:23:32.808Z,101735.00
2022-07-30T19:27:34.683Z,101741.91
2022-07-30T19:31:36.511Z,101745.06
2022-07-30T19:35:38.680Z,101738.78
2022-07-30T19:39:58.539Z,101736.91
2022-07-30T19:44:02.041Z,101751.34
2022-07-30T19:48:04.874Z,101746.78
2022-07-30T19:52:23.341Z,101740.50
2022-07-30T19:56:25.623Z,101741.34
2022-07-30T20:00:27.225Z,101740.75
2022-07-30T20:04:28.834Z,101746.38
2022-07-30T20:08:30.515Z,101751.38
2022-07-30T20:12:32.273Z,101761.66
2022-07-30T20:16:35.535Z,101766.47
2022-07-30T20:20:37.170Z,101767.94
2022-07-30T20:24:42.478Z,101765.63
2022-07-30T20:28:47.669Z,101772.31
2022-07-30T20:32:54.368Z,101781.13
2022-07-30T20:36:57.644Z,101781.13
2022-07-30T20:41:16.357Z,101779.03
2022-07-30T20:45:17.975Z,101775.25
2022-07-30T20:49:28.979Z,101770.66
2022-07-30T20:53:37.148Z,101772.53
2022-07-30T20:57:55.964Z,101772.53
2022-07-30T21:02:01.294Z,101788.44
2022-07-30T21:06:04.260Z,101786.53
2022-07-30T21:10:07.227Z,101791.75
2022-07-30T21:14:10.893Z,101782.56
2022-07-30T21:18:12.637Z,101779.22
2022-07-30T21:22:14.309Z,101777.34
2022-07-30T21:26:15.993Z,101779.22
2022-07-30T21:30:18.605Z,101781.94
2022-07-30T21:34:26.399Z,101775.69
2022-07-30T21:38:30.547Z,101776.72
2022-07-30T21:42:33.098Z,101773.19
2022-07-30T21:46:34.839Z,101770.88
2022-07-30T21:50:41.736Z,101764.81
2022-07-30T21:54:49.692Z,101756.06
2022-07-30T21:58:52.101Z,101753.97
2022-07-30T22:02:54.137Z,101755.25
2022-07-30T22:06:55.879Z,101750.66
2022-07-30T22:11:02.971Z,101759.66
2022-07-30T22:15:10.650Z,101754.66
2022-07-30T22:19:17.243Z,101751.28
2022-07-30T22:23:20.479Z,101751.72
2022-07-30T22:27:22.124Z,101753.19
2022-07-30T22:31:23.821Z,101750.28
2022-07-30T22:35:34.255Z,101759.25
2022-07-30T22:39:51.459Z,101760.94
2022-07-30T22:43:54.210Z,101760.53
2022-07-30T22:47:55.783Z,101768.66
2022-07-30T22:52:28.648Z,101762.59
2022-07-30T22:56:23.946Z,101746.13
2022-07-30T23:00:27.821Z,101739.41
2022-07-30T23:04:48.293Z,101736.06
2022-07-30T23:08:50.849Z,101736.06
2022-07-30T23:12:52.829Z,101731.66
2022-07-30T23:16:54.550Z,101722.47
2022-07-30T23:21:00.280Z,101715.59
2022-07-30T23:25:03.262Z,101712.47
2022-07-30T23:29:04.869Z,101721.03
2022-07-30T23:33:06.551Z,101708.91
2022-07-30T23:37:12.922Z,101713.94
2022-07-30T23:41:29.877Z,101726.03
2022-07-30T23:45:32.382Z,101718.50
2022-07-30T23:49:34.057Z,101725.00
2022-07-30T23:53:35.823Z,101730.59
2022-07-30T23:57:39.325Z,101730.19
